Wildwood, NJ

10:55 AM EDT on October 01, 2014 (GMT -0400)
Millville Municipal | Change Station
CLOSE
Current Station
Airport
Location: Millville,
Elevation: 82 ft
Nearby Weather Stations

Elev 82 ft 39.37 °N, 75.08 °W | Updated 24 minutes ago

Overcast
Overcast
65 °F
Feels Like 65 °F
N
10
Wind Variable Wind from North

Today
High -- | Low -- °F
--% Chance of Precip.
Yesterday
High -- | Low -- °F
Precip. -- in
6:55 AM 6:41 PM
Waxing Crescent, 48% visible
Pressure 30.04 in
Visibility 10.0 miles
Clouds Overcast 1500 ft
Dew Point 58 °F
Humidity 78%
Rainfall 0.01 in
Snow Depth Not available.
UV 1 out of 12
Pollen 3.60 out of 12
Air Quality Not available.
Flu Activity Not available.
SPECI KMIV 011431Z AUTO 01009KT 10SM OVC015 18/14 A3004 RMK AO2 T01830144

More Conditions Fewer Conditions

Pressure 30.04 in
Visibility 10.0 miles
Clouds Overcast 1500 ft
Dew Point 58 °F
Humidity 78%
Rainfall 0.01 in
Snow Depth Not available.
UV 1 out of 12
Pollen 3.60 out of 12
Air Quality Not available.
Flu Activity Not available.
SPECI KMIV 011431Z AUTO 01009KT 10SM OVC015 18/14 A3004 RMK AO2 T01830144

More Conditions Fewer Conditions

10-Day Weather Forecast

Almanac

Astronomy

Oct. 01, 2014 Rise Set
Actual Time 6:55 AM EDT 6:41 PM EDT
Civil Twilight 6:28 AM EDT 7:08 PM EDT
Nautical Twilight 5:57 AM EDT 7:39 PM EDT
Astronomical Twilight 5:26 AM EDT 8:10 PM EDT
Moon 1:51 PM EDT No Moon Set
Length of Visible Light 12h 39m
Length of Day
11h 46m
Tomorrow will be 2m 31s shorter.
Waxing Crescent, 48% of the Moon is Illuminated
Today
Waxing Crescent
Oct 1
First Quarter
Oct 8
Full
Oct 15
Last Quarter
Oct 23
New

Today's Extremes

State Highs State Lows

Community

WunderPhotos

Upload Photos

1,757,960 photos uploaded!

Nearby

Snow Depth

Station Depth Elevation
No new snow has been reported.

Earthquake Activity

City Distance Mag. Time & Date
No recent earthquake activity has been reported nearby.
Minimum magnitude displayed is 2.5.

Coastal Water Temperatures

Place Temperature
Cape May, NJ 73.0 °F
Atlantic City, NJ 70.0 °F
Lewes, DE 69.1 °F

Nearby Weather Stations